sensor_id;sensor_type;location;lat;lon;timestamp;temperature;humidity
64937;SHT30;51452;47.698;19.050;2023-01-19T00:02:21;5.42;84.83
64937;SHT30;51452;47.698;19.050;2023-01-19T00:04:47;5.32;84.55
64937;SHT30;51452;47.698;19.050;2023-01-19T00:07:12;5.24;84.48
64937;SHT30;51452;47.698;19.050;2023-01-19T00:09:38;5.34;84.65
64937;SHT30;51452;47.698;19.050;2023-01-19T00:12:04;5.28;84.79
64937;SHT30;51452;47.698;19.050;2023-01-19T00:14:29;5.39;84.65
64937;SHT30;51452;47.698;19.050;2023-01-19T00:16:55;5.29;84.86
64937;SHT30;51452;47.698;19.050;2023-01-19T00:19:20;5.22;84.76
64937;SHT30;51452;47.698;19.050;2023-01-19T00:21:45;5.24;83.84
64937;SHT30;51452;47.698;19.050;2023-01-19T00:24:11;5.15;84.91
64937;SHT30;51452;47.698;19.050;2023-01-19T00:26:38;5.12;84.86
64937;SHT30;51452;47.698;19.050;2023-01-19T00:29:05;5.21;84.59
64937;SHT30;51452;47.698;19.050;2023-01-19T00:31:32;5.14;84.74
64937;SHT30;51452;47.698;19.050;2023-01-19T00:33:58;5.19;84.45
64937;SHT30;51452;47.698;19.050;2023-01-19T00:36:24;5.15;84.61
64937;SHT30;51452;47.698;19.050;2023-01-19T00:38:49;5.08;84.38
64937;SHT30;51452;47.698;19.050;2023-01-19T00:41:15;5.08;83.91
64937;SHT30;51452;47.698;19.050;2023-01-19T00:43:41;5.01;83.75
64937;SHT30;51452;47.698;19.050;2023-01-19T00:46:06;5.01;84.09
64937;SHT30;51452;47.698;19.050;2023-01-19T00:48:32;5.00;84.33
64937;SHT30;51452;47.698;19.050;2023-01-19T00:50:57;4.90;83.59
64937;SHT30;51452;47.698;19.050;2023-01-19T00:53:24;4.95;83.74
64937;SHT30;51452;47.698;19.050;2023-01-19T00:55:49;4.88;83.85
64937;SHT30;51452;47.698;19.050;2023-01-19T00:58:15;4.97;83.62
64937;SHT30;51452;47.698;19.050;2023-01-19T01:00:40;4.95;83.56
64937;SHT30;51452;47.698;19.050;2023-01-19T01:03:06;4.98;83.33
64937;SHT30;51452;47.698;19.050;2023-01-19T01:05:31;4.92;83.54
64937;SHT30;51452;47.698;19.050;2023-01-19T01:07:57;4.95;84.20
64937;SHT30;51452;47.698;19.050;2023-01-19T01:10:25;5.07;83.61
64937;SHT30;51452;47.698;19.050;2023-01-19T01:12:51;5.02;83.02
64937;SHT30;51452;47.698;19.050;2023-01-19T01:15:17;5.05;83.21
64937;SHT30;51452;47.698;19.050;2023-01-19T01:17:43;5.02;83.20
64937;SHT30;51452;47.698;19.050;2023-01-19T01:22:44;4.87;83.11
64937;SHT30;51452;47.698;19.050;2023-01-19T01:25:14;4.91;84.17
64937;SHT30;51452;47.698;19.050;2023-01-19T01:27:40;4.74;84.03
64937;SHT30;51452;47.698;19.050;2023-01-19T01:30:10;4.77;84.26
64937;SHT30;51452;47.698;19.050;2023-01-19T01:32:36;4.74;84.16
64937;SHT30;51452;47.698;19.050;2023-01-19T01:35:02;4.63;84.56
64937;SHT30;51452;47.698;19.050;2023-01-19T01:37:27;4.70;84.51
64937;SHT30;51452;47.698;19.050;2023-01-19T01:39:53;4.74;83.72
64937;SHT30;51452;47.698;19.050;2023-01-19T01:42:19;4.67;83.74
64937;SHT30;51452;47.698;19.050;2023-01-19T01:44:57;4.59;83.30
64937;SHT30;51452;47.698;19.050;2023-01-19T01:47:31;4.66;83.31
64937;SHT30;51452;47.698;19.050;2023-01-19T01:50:31;4.53;83.23
64937;SHT30;51452;47.698;19.050;2023-01-19T01:53:06;4.57;83.53
64937;SHT30;51452;47.698;19.050;2023-01-19T01:55:35;4.63;83.56
64937;SHT30;51452;47.698;19.050;2023-01-19T01:58:03;4.67;83.17
64937;SHT30;51452;47.698;19.050;2023-01-19T02:00:30;4.77;83.01
64937;SHT30;51452;47.698;19.050;2023-01-19T02:03:20;4.73;83.65
64937;SHT30;51452;47.698;19.050;2023-01-19T02:05:46;4.77;83.50
64937;SHT30;51452;47.698;19.050;2023-01-19T02:08:21;4.70;83.90
64937;SHT30;51452;47.698;19.050;2023-01-19T02:11:08;4.64;83.58
64937;SHT30;51452;47.698;19.050;2023-01-19T02:13:52;4.69;83.69
64937;SHT30;51452;47.698;19.050;2023-01-19T02:16:18;4.59;83.66
64937;SHT30;51452;47.698;19.050;2023-01-19T02:18:43;4.60;83.21
64937;SHT30;51452;47.698;19.050;2023-01-19T02:26:15;4.38;84.55
64937;SHT30;51452;47.698;19.050;2023-01-19T02:28:49;4.35;85.29
64937;SHT30;51452;47.698;19.050;2023-01-19T02:31:16;4.35;85.39
64937;SHT30;51452;47.698;19.050;2023-01-19T02:33:42;4.43;85.64
64937;SHT30;51452;47.698;19.050;2023-01-19T02:36:09;4.47;85.12
64937;SHT30;51452;47.698;19.050;2023-01-19T02:38:37;4.54;85.05
64937;SHT30;51452;47.698;19.050;2023-01-19T02:41:03;4.59;84.76
64937;SHT30;51452;47.698;19.050;2023-01-19T02:43:30;4.61;84.48
64937;SHT30;51452;47.698;19.050;2023-01-19T02:45:56;4.67;84.57
64937;SHT30;51452;47.698;19.050;2023-01-19T02:48:22;4.66;83.81
64937;SHT30;51452;47.698;19.050;2023-01-19T02:51:01;4.73;83.36
64937;SHT30;51452;47.698;19.050;2023-01-19T03:04:30;4.29;83.33
64937;SHT30;51452;47.698;19.050;2023-01-19T03:07:10;4.28;83.59
64937;SHT30;51452;47.698;19.050;2023-01-19T03:09:46;4.19;84.18
64937;SHT30;51452;47.698;19.050;2023-01-19T03:12:26;4.13;84.11
64937;SHT30;51452;47.698;19.050;2023-01-19T03:14:58;4.13;84.23
64937;SHT30;51452;47.698;19.050;2023-01-19T03:17:24;4.05;84.06
64937;SHT30;51452;47.698;19.050;2023-01-19T03:19:52;4.05;83.92
64937;SHT30;51452;47.698;19.050;2023-01-19T03:22:23;3.97;83.98
64937;SHT30;51452;47.698;19.050;2023-01-19T03:24:51;4.03;83.87
64937;SHT30;51452;47.698;19.050;2023-01-19T03:27:23;3.99;84.42
64937;SHT30;51452;47.698;19.050;2023-01-19T03:29:53;4.03;84.23
64937;SHT30;51452;47.698;19.050;2023-01-19T03:32:22;3.91;84.00
64937;SHT30;51452;47.698;19.050;2023-01-19T03:34:51;3.99;84.24
64937;SHT30;51452;47.698;19.050;2023-01-19T03:37:18;3.88;84.16
64937;SHT30;51452;47.698;19.050;2023-01-19T03:39:45;3.92;84.17
64937;SHT30;51452;47.698;19.050;2023-01-19T03:42:13;3.92;83.72
64937;SHT30;51452;47.698;19.050;2023-01-19T03:44:41;3.87;83.79
64937;SHT30;51452;47.698;19.050;2023-01-19T03:47:09;3.82;83.53
64937;SHT30;51452;47.698;19.050;2023-01-19T03:52:30;3.67;83.51
64937;SHT30;51452;47.698;19.050;2023-01-19T03:54:58;3.60;84.02
64937;SHT30;51452;47.698;19.050;2023-01-19T03:57:24;3.63;84.07
64937;SHT30;51452;47.698;19.050;2023-01-19T03:59:49;3.53;84.35
64937;SHT30;51452;47.698;19.050;2023-01-19T04:02:15;3.64;84.35
64937;SHT30;51452;47.698;19.050;2023-01-19T04:04:40;3.58;83.65
64937;SHT30;51452;47.698;19.050;2023-01-19T04:07:06;3.54;83.81
64937;SHT30;51452;47.698;19.050;2023-01-19T04:09:31;3.47;84.02
64937;SHT30;51452;47.698;19.050;2023-01-19T04:11:56;3.44;84.19
64937;SHT30;51452;47.698;19.050;2023-01-19T04:14:22;3.37;84.39
64937;SHT30;51452;47.698;19.050;2023-01-19T04:16:47;3.36;84.27
64937;SHT30;51452;47.698;19.050;2023-01-19T04:19:13;3.36;84.42
64937;SHT30;51452;47.698;19.050;2023-01-19T04:21:38;3.37;84.61
64937;SHT30;51452;47.698;19.050;2023-01-19T04:24:04;3.43;84.57
64937;SHT30;51452;47.698;19.050;2023-01-19T04:26:29;3.40;84.33
64937;SHT30;51452;47.698;19.050;2023-01-19T04:28:54;3.48;84.91
64937;SHT30;51452;47.698;19.050;2023-01-19T04:31:20;3.44;84.49
64937;SHT30;51452;47.698;19.050;2023-01-19T04:33:47;3.50;84.20
64937;SHT30;51452;47.698;19.050;2023-01-19T04:36:12;3.53;84.11
64937;SHT30;51452;47.698;19.050;2023-01-19T04:38:38;3.66;84.45
64937;SHT30;51452;47.698;19.050;2023-01-19T04:41:03;3.60;84.33
64937;SHT30;51452;47.698;19.050;2023-01-19T04:43:29;3.48;84.26
64937;SHT30;51452;47.698;19.050;2023-01-19T04:45:54;3.56;84.63
64937;SHT30;51452;47.698;19.050;2023-01-19T04:48:20;3.56;84.19
64937;SHT30;51452;47.698;19.050;2023-01-19T04:50:46;3.51;84.36
64937;SHT30;51452;47.698;19.050;2023-01-19T04:53:11;3.58;84.66
64937;SHT30;51452;47.698;19.050;2023-01-19T04:55:38;3.58;84.13
64937;SHT30;51452;47.698;19.050;2023-01-19T04:58:03;3.60;84.49
64937;SHT30;51452;47.698;19.050;2023-01-19T05:00:29;3.60;84.24
64937;SHT30;51452;47.698;19.050;2023-01-19T05:02:54;3.64;84.34
64937;SHT30;51452;47.698;19.050;2023-01-19T05:05:20;3.71;84.46
64937;SHT30;51452;47.698;19.050;2023-01-19T05:07:46;3.73;84.29
64937;SHT30;51452;47.698;19.050;2023-01-19T05:10:11;3.84;84.41
64937;SHT30;51452;47.698;19.050;2023-01-19T05:12:37;3.85;84.04
64937;SHT30;51452;47.698;19.050;2023-01-19T05:15:03;3.82;84.16
64937;SHT30;51452;47.698;19.050;2023-01-19T05:17:28;3.85;83.70
64937;SHT30;51452;47.698;19.050;2023-01-19T05:19:54;3.95;83.88
64937;SHT30;51452;47.698;19.050;2023-01-19T05:22:19;3.95;83.61
64937;SHT30;51452;47.698;19.050;2023-01-19T05:24:45;3.94;83.48
64937;SHT30;51452;47.698;19.050;2023-01-19T05:27:10;3.94;83.47
64937;SHT30;51452;47.698;19.050;2023-01-19T05:29:36;3.82;83.41
64937;SHT30;51452;47.698;19.050;2023-01-19T05:32:01;3.75;84.01
64937;SHT30;51452;47.698;19.050;2023-01-19T05:34:27;3.77;84.41
64937;SHT30;51452;47.698;19.050;2023-01-19T05:36:52;3.87;84.40
64937;SHT30;51452;47.698;19.050;2023-01-19T05:39:18;3.88;84.57
64937;SHT30;51452;47.698;19.050;2023-01-19T05:41:43;3.91;84.79
64937;SHT30;51452;47.698;19.050;2023-01-19T05:44:09;3.97;84.52
64937;SHT30;51452;47.698;19.050;2023-01-19T05:46:35;3.99;84.33
64937;SHT30;51452;47.698;19.050;2023-01-19T05:49:01;4.03;84.20
64937;SHT30;51452;47.698;19.050;2023-01-19T05:51:29;4.06;84.21
64937;SHT30;51452;47.698;19.050;2023-01-19T05:54:00;4.08;84.30
64937;SHT30;51452;47.698;19.050;2023-01-19T05:56:25;4.08;84.05
64937;SHT30;51452;47.698;19.050;2023-01-19T05:58:51;4.09;84.44
64937;SHT30;51452;47.698;19.050;2023-01-19T06:01:16;4.10;84.21
64937;SHT30;51452;47.698;19.050;2023-01-19T06:03:41;4.15;84.19
64937;SHT30;51452;47.698;19.050;2023-01-19T06:06:07;4.13;84.16
64937;SHT30;51452;47.698;19.050;2023-01-19T06:08:32;4.09;84.10
64937;SHT30;51452;47.698;19.050;2023-01-19T06:10:58;3.99;83.81
64937;SHT30;51452;47.698;19.050;2023-01-19T06:13:23;3.98;83.93
64937;SHT30;51452;47.698;19.050;2023-01-19T06:15:55;3.89;83.53
64937;SHT30;51452;47.698;19.050;2023-01-19T06:18:21;3.92;84.00
64937;SHT30;51452;47.698;19.050;2023-01-19T06:20:46;3.85;83.78
64937;SHT30;51452;47.698;19.050;2023-01-19T06:23:11;3.85;83.97
64937;SHT30;51452;47.698;19.050;2023-01-19T06:25:37;3.66;84.07
64937;SHT30;51452;47.698;19.050;2023-01-19T06:28:02;3.56;84.09
64937;SHT30;51452;47.698;19.050;2023-01-19T06:30:28;3.58;84.42
64937;SHT30;51452;47.698;19.050;2023-01-19T06:32:53;3.54;84.42
64937;SHT30;51452;47.698;19.050;2023-01-19T06:35:19;3.63;84.51
64937;SHT30;51452;47.698;19.050;2023-01-19T06:37:44;3.57;84.64
64937;SHT30;51452;47.698;19.050;2023-01-19T06:40:10;3.63;84.57
64937;SHT30;51452;47.698;19.050;2023-01-19T06:42:36;3.53;84.58
64937;SHT30;51452;47.698;19.050;2023-01-19T06:45:01;3.67;84.69
64937;SHT30;51452;47.698;19.050;2023-01-19T06:47:27;3.67;84.30
64937;SHT30;51452;47.698;19.050;2023-01-19T06:49:52;3.74;84.39
64937;SHT30;51452;47.698;19.050;2023-01-19T06:52:17;3.71;84.40
64937;SHT30;51452;47.698;19.050;2023-01-19T06:54:44;3.73;84.55
64937;SHT30;51452;47.698;19.050;2023-01-19T06:57:10;3.85;84.65
64937;SHT30;51452;47.698;19.050;2023-01-19T06:59:36;3.73;84.35
64937;SHT30;51452;47.698;19.050;2023-01-19T07:02:02;3.87;84.33
64937;SHT30;51452;47.698;19.050;2023-01-19T07:04:27;3.81;84.60
64937;SHT30;51452;47.698;19.050;2023-01-19T07:06:53;3.77;84.28
64937;SHT30;51452;47.698;19.050;2023-01-19T07:09:18;3.79;84.39
64937;SHT30;51452;47.698;19.050;2023-01-19T07:11:45;3.81;84.57
64937;SHT30;51452;47.698;19.050;2023-01-19T07:14:10;3.74;84.65
64937;SHT30;51452;47.698;19.050;2023-01-19T07:16:36;3.75;84.97
64937;SHT30;51452;47.698;19.050;2023-01-19T07:19:01;3.82;85.15
64937;SHT30;51452;47.698;19.050;2023-01-19T07:21:27;3.74;84.99
64937;SHT30;51452;47.698;19.050;2023-01-19T07:23:52;3.75;85.12
64937;SHT30;51452;47.698;19.050;2023-01-19T07:26:18;3.74;85.35
64937;SHT30;51452;47.698;19.050;2023-01-19T07:28:46;3.66;85.53
64937;SHT30;51452;47.698;19.050;2023-01-19T07:31:11;3.63;85.79
64937;SHT30;51452;47.698;19.050;2023-01-19T07:33:37;3.67;85.74
64937;SHT30;51452;47.698;19.050;2023-01-19T07:36:02;3.74;85.62
64937;SHT30;51452;47.698;19.050;2023-01-19T07:38:28;3.82;85.25
64937;SHT30;51452;47.698;19.050;2023-01-19T07:41:03;3.77;85.11
64937;SHT30;51452;47.698;19.050;2023-01-19T07:43:29;3.82;85.15
64937;SHT30;51452;47.698;19.050;2023-01-19T07:45:56;3.81;85.24
64937;SHT30;51452;47.698;19.050;2023-01-19T07:48:22;3.88;85.18
64937;SHT30;51452;47.698;19.050;2023-01-19T07:50:47;3.91;85.17
64937;SHT30;51452;47.698;19.050;2023-01-19T07:53:13;3.97;85.11
64937;SHT30;51452;47.698;19.050;2023-01-19T07:55:38;4.01;85.02
64937;SHT30;51452;47.698;19.050;2023-01-19T07:58:04;3.98;85.04
64937;SHT30;51452;47.698;19.050;2023-01-19T08:00:32;4.01;85.16
64937;SHT30;51452;47.698;19.050;2023-01-19T08:03:01;4.03;84.85
64937;SHT30;51452;47.698;19.050;2023-01-19T08:05:27;4.03;84.77
64937;SHT30;51452;47.698;19.050;2023-01-19T08:07:57;4.08;85.28
64937;SHT30;51452;47.698;19.050;2023-01-19T08:10:23;4.13;85.05
64937;SHT30;51452;47.698;19.050;2023-01-19T08:12:53;4.12;84.90
64937;SHT30;51452;47.698;19.050;2023-01-19T08:15:19;4.12;84.80
64937;SHT30;51452;47.698;19.050;2023-01-19T08:17:54;4.13;84.89
64937;SHT30;51452;47.698;19.050;2023-01-19T08:20:20;4.06;84.86
64937;SHT30;51452;47.698;19.050;2023-01-19T08:22:47;4.12;84.86
64937;SHT30;51452;47.698;19.050;2023-01-19T08:25:13;4.18;85.03
64937;SHT30;51452;47.698;19.050;2023-01-19T08:27:38;4.18;84.84
64937;SHT30;51452;47.698;19.050;2023-01-19T08:30:04;4.13;84.94
64937;SHT30;51452;47.698;19.050;2023-01-19T08:32:29;4.20;84.99
64937;SHT30;51452;47.698;19.050;2023-01-19T08:34:55;4.36;85.11
64937;SHT30;51452;47.698;19.050;2023-01-19T08:37:20;4.33;84.87
64937;SHT30;51452;47.698;19.050;2023-01-19T08:39:47;4.36;84.66
64937;SHT30;51452;47.698;19.050;2023-01-19T08:42:12;4.40;84.66
64937;SHT30;51452;47.698;19.050;2023-01-19T08:44:38;4.50;84.89
64937;SHT30;51452;47.698;19.050;2023-01-19T08:47:03;4.56;84.87
64937;SHT30;51452;47.698;19.050;2023-01-19T08:49:29;4.49;84.58
64937;SHT30;51452;47.698;19.050;2023-01-19T08:51:54;4.47;84.46
64937;SHT30;51452;47.698;19.050;2023-01-19T08:54:19;4.46;85.20
64937;SHT30;51452;47.698;19.050;2023-01-19T08:56:45;4.46;85.36
64937;SHT30;51452;47.698;19.050;2023-01-19T08:59:11;4.47;85.54
64937;SHT30;51452;47.698;19.050;2023-01-19T09:01:36;4.50;85.43
64937;SHT30;51452;47.698;19.050;2023-01-19T09:04:02;4.61;85.49
64937;SHT30;51452;47.698;19.050;2023-01-19T09:06:27;4.50;85.65
64937;SHT30;51452;47.698;19.050;2023-01-19T09:08:53;4.50;85.13
64937;SHT30;51452;47.698;19.050;2023-01-19T09:11:18;4.53;85.01
64937;SHT30;51452;47.698;19.050;2023-01-19T09:13:44;4.53;84.80
64937;SHT30;51452;47.698;19.050;2023-01-19T09:16:09;4.49;84.86
64937;SHT30;51452;47.698;19.050;2023-01-19T09:18:37;4.46;85.02
64937;SHT30;51452;47.698;19.050;2023-01-19T09:21:03;4.42;85.13
64937;SHT30;51452;47.698;19.050;2023-01-19T09:23:28;4.38;85.18
64937;SHT30;51452;47.698;19.050;2023-01-19T09:25:59;4.32;85.42
64937;SHT30;51452;47.698;19.050;2023-01-19T09:28:25;4.32;85.78
64937;SHT30;51452;47.698;19.050;2023-01-19T09:30:51;4.43;85.81
64937;SHT30;51452;47.698;19.050;2023-01-19T09:33:18;4.35;85.36
64937;SHT30;51452;47.698;19.050;2023-01-19T09:35:45;4.43;85.48
64937;SHT30;51452;47.698;19.050;2023-01-19T09:38:12;4.50;85.60
64937;SHT30;51452;47.698;19.050;2023-01-19T09:40:47;4.45;85.50
64937;SHT30;51452;47.698;19.050;2023-01-19T09:43:39;4.33;86.01
64937;SHT30;51452;47.698;19.050;2023-01-19T09:46:18;4.35;86.34
64937;SHT30;51452;47.698;19.050;2023-01-19T09:48:53;4.46;86.26
64937;SHT30;51452;47.698;19.050;2023-01-19T09:51:27;4.39;85.97
64937;SHT30;51452;47.698;19.050;2023-01-19T09:56:29;4.32;86.30
64937;SHT30;51452;47.698;19.050;2023-01-19T09:58:55;4.35;86.48
64937;SHT30;51452;47.698;19.050;2023-01-19T10:08:11;4.22;86.07
64937;SHT30;51452;47.698;19.050;2023-01-19T10:10:23;4.22;86.38
64937;SHT30;51452;47.698;19.050;2023-01-19T10:21:00;4.28;86.39
64937;SHT30;51452;47.698;19.050;2023-01-19T10:26:26;4.10;87.03
64937;SHT30;51452;47.698;19.050;2023-01-19T10:28:57;4.03;87.24
64937;SHT30;51452;47.698;19.050;2023-01-19T10:31:23;4.12;87.48
64937;SHT30;51452;47.698;19.050;2023-01-19T10:33:50;4.02;86.94
64937;SHT30;51452;47.698;19.050;2023-01-19T10:36:23;4.02;86.91
64937;SHT30;51452;47.698;19.050;2023-01-19T10:38:50;3.89;86.88
64937;SHT30;51452;47.698;19.050;2023-01-19T10:41:42;3.94;87.03
64937;SHT30;51452;47.698;19.050;2023-01-19T10:44:08;3.88;87.33
64937;SHT30;51452;47.698;19.050;2023-01-19T10:46:46;3.89;86.93
64937;SHT30;51452;47.698;19.050;2023-01-19T10:49:38;3.82;86.97
64937;SHT30;51452;47.698;19.050;2023-01-19T10:52:06;3.92;87.31
64937;SHT30;51452;47.698;19.050;2023-01-19T10:54:34;3.85;87.25
64937;SHT30;51452;47.698;19.050;2023-01-19T10:57:03;3.89;87.10
64937;SHT30;51452;47.698;19.050;2023-01-19T11:04:41;3.84;86.56
64937;SHT30;51452;47.698;19.050;2023-01-19T11:07:29;3.87;87.15
64937;SHT30;51452;47.698;19.050;2023-01-19T11:12:42;3.81;87.05
64937;SHT30;51452;47.698;19.050;2023-01-19T11:15:18;3.77;87.25
64937;SHT30;51452;47.698;19.050;2023-01-19T11:17:45;3.77;87.28
64937;SHT30;51452;47.698;19.050;2023-01-19T11:20:48;3.78;86.92
64937;SHT30;51452;47.698;19.050;2023-01-19T11:23:40;3.84;87.21
64937;SHT30;51452;47.698;19.050;2023-01-19T11:26:12;3.84;87.01
64937;SHT30;51452;47.698;19.050;2023-01-19T11:28:42;3.84;87.03
64937;SHT30;51452;47.698;19.050;2023-01-19T11:33:59;4.01;86.79
64937;SHT30;51452;47.698;19.050;2023-01-19T11:36:30;4.08;86.61
64937;SHT30;51452;47.698;19.050;2023-01-19T11:39:14;4.16;86.33
64937;SHT30;51452;47.698;19.050;2023-01-19T11:41:48;4.23;86.41
64937;SHT30;51452;47.698;19.050;2023-01-19T11:46:42;4.39;85.84
64937;SHT30;51452;47.698;19.050;2023-01-19T11:49:18;4.36;85.20
64937;SHT30;51452;47.698;19.050;2023-01-19T11:52:06;4.45;84.85
64937;SHT30;51452;47.698;19.050;2023-01-19T11:54:44;4.36;84.78
64937;SHT30;51452;47.698;19.050;2023-01-19T11:57:14;4.40;84.93
64937;SHT30;51452;47.698;19.050;2023-01-19T11:59:41;4.42;84.87
64937;SHT30;51452;47.698;19.050;2023-01-19T12:02:34;4.40;84.95
64937;SHT30;51452;47.698;19.050;2023-01-19T12:05:05;4.45;84.90
64937;SHT30;51452;47.698;19.050;2023-01-19T12:07:35;4.40;84.59
64937;SHT30;51452;47.698;19.050;2023-01-19T12:10:17;4.54;84.30
64937;SHT30;51452;47.698;19.050;2023-01-19T12:12:45;4.66;84.17
64937;SHT30;51452;47.698;19.050;2023-01-19T12:17:57;4.71;83.51
64937;SHT30;51452;47.698;19.050;2023-01-19T12:20:42;4.80;83.98
64937;SHT30;51452;47.698;19.050;2023-01-19T12:28:42;4.70;83.80
64937;SHT30;51452;47.698;19.050;2023-01-19T12:31:08;4.69;83.78
64937;SHT30;51452;47.698;19.050;2023-01-19T12:33:36;4.49;83.76
64937;SHT30;51452;47.698;19.050;2023-01-19T12:38:39;4.53;84.14
64937;SHT30;51452;47.698;19.050;2023-01-19T12:41:17;4.50;84.21
64937;SHT30;51452;47.698;19.050;2023-01-19T12:43:44;4.45;84.46
64937;SHT30;51452;47.698;19.050;2023-01-19T12:46:28;4.45;84.20
64937;SHT30;51452;47.698;19.050;2023-01-19T12:48:55;4.52;84.44
64937;SHT30;51452;47.698;19.050;2023-01-19T12:51:28;4.47;84.30
64937;SHT30;51452;47.698;19.050;2023-01-19T12:53:55;4.50;84.30
64937;SHT30;51452;47.698;19.050;2023-01-19T12:56:30;4.56;84.26
64937;SHT30;51452;47.698;19.050;2023-01-19T12:58:57;4.59;84.23
64937;SHT30;51452;47.698;19.050;2023-01-19T13:01:23;4.60;84.35
64937;SHT30;51452;47.698;19.050;2023-01-19T13:04:05;4.40;83.78
64937;SHT30;51452;47.698;19.050;2023-01-19T13:09:33;4.43;84.31
64937;SHT30;51452;47.698;19.050;2023-01-19T13:12:24;4.36;84.41
64937;SHT30;51452;47.698;19.050;2023-01-19T13:15:33;4.28;84.46
64937;SHT30;51452;47.698;19.050;2023-01-19T13:17:59;4.42;84.62
64937;SHT30;51452;47.698;19.050;2023-01-19T13:20:30;4.45;84.48
64937;SHT30;51452;47.698;19.050;2023-01-19T13:25:32;4.45;84.73
64937;SHT30;51452;47.698;19.050;2023-01-19T13:28:00;4.33;84.43
64937;SHT30;51452;47.698;19.050;2023-01-19T13:30:27;4.36;84.62
64937;SHT30;51452;47.698;19.050;2023-01-19T13:32:56;4.39;84.37
64937;SHT30;51452;47.698;19.050;2023-01-19T13:35:24;4.43;84.66
64937;SHT30;51452;47.698;19.050;2023-01-19T13:37:50;4.49;84.36
64937;SHT30;51452;47.698;19.050;2023-01-19T13:40:26;4.43;84.71
64937;SHT30;51452;47.698;19.050;2023-01-19T13:42:54;4.42;84.38
64937;SHT30;51452;47.698;19.050;2023-01-19T13:45:25;4.32;84.70
64937;SHT30;51452;47.698;19.050;2023-01-19T13:47:53;4.42;84.36
64937;SHT30;51452;47.698;19.050;2023-01-19T13:50:21;4.43;84.45
64937;SHT30;51452;47.698;19.050;2023-01-19T13:52:47;4.47;84.54
64937;SHT30;51452;47.698;19.050;2023-01-19T13:55:15;4.36;84.95
64937;SHT30;51452;47.698;19.050;2023-01-19T13:57:42;4.35;84.50
64937;SHT30;51452;47.698;19.050;2023-01-19T14:05:25;4.20;85.10
64937;SHT30;51452;47.698;19.050;2023-01-19T14:13:21;4.10;85.34
64937;SHT30;51452;47.698;19.050;2023-01-19T14:15:50;4.22;85.48
64937;SHT30;51452;47.698;19.050;2023-01-19T14:26:01;4.08;85.62
64937;SHT30;51452;47.698;19.050;2023-01-19T14:31:16;3.88;85.25
64937;SHT30;51452;47.698;19.050;2023-01-19T14:33:43;3.91;85.54
64937;SHT30;51452;47.698;19.050;2023-01-19T14:38:45;3.91;85.37
64937;SHT30;51452;47.698;19.050;2023-01-19T14:41:22;3.79;84.97
64937;SHT30;51452;47.698;19.050;2023-01-19T14:43:48;3.78;85.78
64937;SHT30;51452;47.698;19.050;2023-01-19T14:46:17;3.84;85.47
64937;SHT30;51452;47.698;19.050;2023-01-19T14:48:50;3.82;85.25
64937;SHT30;51452;47.698;19.050;2023-01-19T14:51:22;3.73;85.05
64937;SHT30;51452;47.698;19.050;2023-01-19T14:53:51;3.71;85.51
64937;SHT30;51452;47.698;19.050;2023-01-19T14:56:29;3.68;85.59
64937;SHT30;51452;47.698;19.050;2023-01-19T14:58:56;3.56;85.58
64937;SHT30;51452;47.698;19.050;2023-01-19T15:01:22;3.51;85.73
64937;SHT30;51452;47.698;19.050;2023-01-19T15:03:48;3.44;85.85
64937;SHT30;51452;47.698;19.050;2023-01-19T15:06:19;3.37;86.17
64937;SHT30;51452;47.698;19.050;2023-01-19T15:08:45;3.36;85.75
64937;SHT30;51452;47.698;19.050;2023-01-19T15:11:30;3.37;85.88
64937;SHT30;51452;47.698;19.050;2023-01-19T15:13:56;3.27;85.93
64937;SHT30;51452;47.698;19.050;2023-01-19T15:16:22;3.16;85.50
64937;SHT30;51452;47.698;19.050;2023-01-19T15:18:48;3.24;85.93
64937;SHT30;51452;47.698;19.050;2023-01-19T15:21:15;3.30;86.16
64937;SHT30;51452;47.698;19.050;2023-01-19T15:23:43;3.33;86.13
64937;SHT30;51452;47.698;19.050;2023-01-19T15:26:14;3.26;85.99
64937;SHT30;51452;47.698;19.050;2023-01-19T15:28:39;3.17;85.74
64937;SHT30;51452;47.698;19.050;2023-01-19T15:31:05;3.22;86.10
64937;SHT30;51452;47.698;19.050;2023-01-19T15:33:30;3.24;86.11
64937;SHT30;51452;47.698;19.050;2023-01-19T15:35:56;3.15;85.98
64937;SHT30;51452;47.698;19.050;2023-01-19T15:38:21;3.15;86.33
64937;SHT30;51452;47.698;19.050;2023-01-19T15:40:48;3.05;86.37
64937;SHT30;51452;47.698;19.050;2023-01-19T15:43:13;2.96;87.00
64937;SHT30;51452;47.698;19.050;2023-01-19T15:46:01;2.92;87.02
64937;SHT30;51452;47.698;19.050;2023-01-19T15:48:26;3.00;87.08
64937;SHT30;51452;47.698;19.050;2023-01-19T15:50:54;2.96;86.95
64937;SHT30;51452;47.698;19.050;2023-01-19T15:53:20;2.97;87.10
64937;SHT30;51452;47.698;19.050;2023-01-19T15:55:49;2.91;87.19
64937;SHT30;51452;47.698;19.050;2023-01-19T15:58:15;2.85;87.15
64937;SHT30;51452;47.698;19.050;2023-01-19T16:00:40;2.82;87.17
64937;SHT30;51452;47.698;19.050;2023-01-19T16:03:06;2.93;87.28
64937;SHT30;51452;47.698;19.050;2023-01-19T16:05:32;2.88;87.15
64937;SHT30;51452;47.698;19.050;2023-01-19T16:07:57;2.86;87.51
64937;SHT30;51452;47.698;19.050;2023-01-19T16:10:23;2.89;87.52
64937;SHT30;51452;47.698;19.050;2023-01-19T16:12:49;2.96;87.49
64937;SHT30;51452;47.698;19.050;2023-01-19T16:15:16;2.84;86.94
64937;SHT30;51452;47.698;19.050;2023-01-19T16:17:42;2.84;87.00
64937;SHT30;51452;47.698;19.050;2023-01-19T16:20:08;2.85;87.25
64937;SHT30;51452;47.698;19.050;2023-01-19T16:22:34;2.92;87.29
64937;SHT30;51452;47.698;19.050;2023-01-19T16:25:00;2.84;87.09
64937;SHT30;51452;47.698;19.050;2023-01-19T16:27:26;2.85;86.96
64937;SHT30;51452;47.698;19.050;2023-01-19T16:29:51;2.91;86.96
64937;SHT30;51452;47.698;19.050;2023-01-19T16:32:17;2.92;86.83
64937;SHT30;51452;47.698;19.050;2023-01-19T16:34:43;2.89;86.99
64937;SHT30;51452;47.698;19.050;2023-01-19T16:37:08;2.88;86.81
64937;SHT30;51452;47.698;19.050;2023-01-19T16:39:34;2.86;87.19
64937;SHT30;51452;47.698;19.050;2023-01-19T16:41:59;2.81;86.68
64937;SHT30;51452;47.698;19.050;2023-01-19T16:44:25;2.82;86.72
64937;SHT30;51452;47.698;19.050;2023-01-19T16:46:50;2.75;86.65
64937;SHT30;51452;47.698;19.050;2023-01-19T16:49:17;2.76;86.74
64937;SHT30;51452;47.698;19.050;2023-01-19T16:51:43;2.79;86.61
64937;SHT30;51452;47.698;19.050;2023-01-19T16:54:13;2.79;86.79
64937;SHT30;51452;47.698;19.050;2023-01-19T16:56:40;2.85;86.52
64937;SHT30;51452;47.698;19.050;2023-01-19T16:59:08;2.89;86.56
64937;SHT30;51452;47.698;19.050;2023-01-19T17:01:35;2.89;86.04
64937;SHT30;51452;47.698;19.050;2023-01-19T17:04:02;2.91;85.92
64937;SHT30;51452;47.698;19.050;2023-01-19T17:06:31;2.95;85.76
64937;SHT30;51452;47.698;19.050;2023-01-19T17:08:57;2.95;85.61
64937;SHT30;51452;47.698;19.050;2023-01-19T17:11:25;2.95;85.44
64937;SHT30;51452;47.698;19.050;2023-01-19T17:13:53;3.05;85.29